Charlotte, Michigan
Current Conditions -  °F | °C
As of 10:15 AM on Wednesday 22 Oct 2014 (Local Time) from KFPK Reporting Station
Overcast Overcast  
Wind Chill: 43°   Ceiling: 1500
Heat Index: 43°   Visibility: 10mi
Dew Point: 38°   Wind: 0mph
Humidity: 84%   Direction: NA
Pressure: 30.34"   Gusts: NA
Location:  42.56°N, 84.83°W
Report Text: KFPK 221415Z AUTO 00000KT 10SM OVC015 06/03 A3034 RMK AO2 T00600034
Loading
Personal Weather Stations






























Interactive Weather Map
Tropical Storm Tracking
New forecast layout! Learn more

10-Day Weather Forecast

Advertisements
Track Severe Weather on mobile